Time;durP1;ratioP1;P1;durP2;ratioP2;P2;SDS_P1;SDS_P2;PMS_P1;PMS_P2;Temp;Humidity;BMP_temperature;BMP_pressure;BME280_temperature;BME280_humidity;BME280_pressure;Samples;Min_cycle;Max_cycle;Signal;HPM_P1;HPM_P2
2023/10/25 00:00:08;;;;;;;16.20;9.00;;;;;;;11.53;100.00;95102.21;108194;1277;23893;-77
2023/10/25 00:03:00;;;;;;;15.50;8.90;;;;;;;11.54;100.00;95095.69;108227;1277;23048;-77
2023/10/25 00:05:34;;;;;;;16.00;9.00;;;;;;;11.55;100.00;95092.19;108180;1278;22613;-76
2023/10/25 00:08:08;;;;;;;20.10;9.50;;;;;;;11.57;100.00;95087.16;108181;1278;25473;-77
2023/10/25 00:10:39;;;;;;;21.40;11.20;;;;;;;11.58;100.00;95081.52;108199;1278;22510;-77
2023/10/25 00:13:10;;;;;;;21.50;10.40;;;;;;;11.60;100.00;95083.11;108195;1277;22531;-77
2023/10/25 00:15:43;;;;;;;18.80;8.80;;;;;;;11.60;100.00;95072.58;108199;1278;22537;-77
2023/10/25 00:18:14;;;;;;;21.20;8.80;;;;;;;11.62;100.00;95073.63;108171;1277;25334;-77
2023/10/25 00:20:45;;;;;;;18.10;8.40;;;;;;;11.64;100.00;95065.17;108209;1278;24219;-77
2023/10/25 00:23:16;;;;;;;20.10;7.60;;;;;;;11.66;100.00;95064.05;108213;1270;22625;-77
2023/10/25 00:25:47;;;;;;;16.20;7.60;;;;;;;11.68;100.00;95055.30;108190;1278;22680;-77
2023/10/25 00:28:19;;;;;;;19.00;9.10;;;;;;;11.69;100.00;95052.64;108215;1254;24583;-76
2023/10/25 00:30:50;;;;;;;14.50;8.00;;;;;;;11.69;100.00;95047.42;108190;1278;24249;-77
2023/10/25 00:33:26;;;;;;;15.20;8.00;;;;;;;11.70;100.00;95045.39;108216;1277;23178;-77
2023/10/25 00:35:59;;;;;;;16.90;8.20;;;;;;;11.70;100.00;95039.86;108205;1276;24396;-77
2023/10/25 00:38:30;;;;;;;15.10;8.30;;;;;;;11.70;100.00;95035.09;108231;1278;22527;-77
2023/10/25 00:41:01;;;;;;;13.70;7.60;;;;;;;11.70;100.00;95029.77;108198;1278;22534;-77
2023/10/25 00:43:32;;;;;;;12.70;7.70;;;;;;;11.70;100.00;95024.77;108196;1277;22557;-77
2023/10/25 00:46:13;;;;;;;15.90;8.10;;;;;;;11.70;100.00;95023.72;108191;1277;22544;-77
2023/10/25 00:48:46;;;;;;;16.40;7.70;;;;;;;11.71;100.00;95022.30;108187;1278;22556;-77
2023/10/25 00:51:21;;;;;;;11.30;7.30;;;;;;;11.71;100.00;95021.27;108247;1278;23504;-77
2023/10/25 00:53:59;;;;;;;16.50;7.60;;;;;;;11.73;100.00;95016.91;108288;1278;22524;-77
2023/10/25 00:56:33;;;;;;;15.60;7.00;;;;;;;11.74;100.00;95016.49;108265;1278;25359;-77
2023/10/25 00:59:05;;;;;;;14.40;7.90;;;;;;;11.74;100.00;95010.97;108210;1278;29896;-77
2023/10/25 01:01:36;;;;;;;16.10;8.30;;;;;;;11.75;100.00;95013.58;108205;1272;22598;-77
2023/10/25 01:04:07;;;;;;;15.10;7.70;;;;;;;11.74;100.00;95007.40;108227;1278;22531;-77
2023/10/25 01:06:38;;;;;;;16.40;8.20;;;;;;;11.71;100.00;95003.21;108229;1278;23402;-77
2023/10/25 01:09:10;;;;;;;16.20;8.10;;;;;;;11.69;100.00;95002.98;108178;1278;22539;-77
2023/10/25 01:11:41;;;;;;;16.40;9.00;;;;;;;11.64;100.00;95000.97;108212;1278;23396;-77
2023/10/25 01:14:12;;;;;;;15.60;8.30;;;;;;;11.62;100.00;94998.40;108205;1278;25585;-77
2023/10/25 01:16:43;;;;;;;18.20;7.90;;;;;;;11.63;100.00;94993.58;108191;1278;22541;-77
2023/10/25 01:19:14;;;;;;;15.30;7.50;;;;;;;11.65;100.00;94992.35;108183;1278;22572;-77
2023/10/25 01:21:47;;;;;;;15.20;8.30;;;;;;;11.67;100.00;94989.46;108254;1278;25416;-77
2023/10/25 01:24:18;;;;;;;17.00;7.80;;;;;;;11.69;100.00;94986.64;108208;1278;22527;-77
2023/10/25 01:26:49;;;;;;;18.10;9.70;;;;;;;11.69;100.00;94982.59;108234;1278;23281;-77
2023/10/25 01:29:20;;;;;;;18.00;10.00;;;;;;;11.66;100.00;94980.47;108193;1278;25317;-77
2023/10/25 01:31:51;;;;;;;23.80;12.10;;;;;;;11.61;100.00;94981.05;108237;1278;22523;-77
2023/10/25 01:34:25;;;;;;;16.60;8.40;;;;;;;11.56;100.00;94980.65;108223;1278;22571;-77
2023/10/25 01:36:56;;;;;;;18.50;9.20;;;;;;;11.57;100.00;94978.41;108217;1277;24136;-77
2023/10/25 01:39:26;;;;;;;15.20;8.10;;;;;;;11.59;100.00;94975.63;108171;1278;23007;-77
2023/10/25 01:42:00;;;;;;;12.60;6.80;;;;;;;11.62;100.00;94972.74;108234;1278;22604;-77
2023/10/25 01:44:32;;;;;;;20.10;9.20;;;;;;;11.63;100.00;94968.02;108184;1277;22525;-77
2023/10/25 01:47:03;;;;;;;15.20;7.60;;;;;;;11.64;100.00;94970.63;108241;1277;22648;-77
2023/10/25 01:49:33;;;;;;;12.60;6.90;;;;;;;11.65;100.00;94967.55;108181;1271;29813;-77
2023/10/25 01:52:07;;;;;;;17.60;7.70;;;;;;;11.67;100.00;94966.38;108234;1278;22536;-77
2023/10/25 01:54:39;;;;;;;13.10;6.80;;;;;;;11.68;100.00;94966.69;108231;1278;22523;-77
2023/10/25 01:57:10;;;;;;;12.80;6.20;;;;;;;11.70;100.00;94966.60;108266;1278;22519;-77
2023/10/25 01:59:41;;;;;;;13.90;6.60;;;;;;;11.70;100.00;94966.38;108183;1278;22524;-77
2023/10/25 02:02:12;;;;;;;15.90;7.30;;;;;;;11.71;100.00;94966.65;108172;1271;26539;-77
2023/10/25 02:04:43;;;;;;;13.10;7.80;;;;;;;11.70;100.00;94961.73;108171;1278;24411;-77
2023/10/25 02:07:14;;;;;;;15.10;7.10;;;;;;;11.73;100.00;94960.50;108201;1278;22529;-77
2023/10/25 02:09:45;;;;;;;16.20;6.60;;;;;;;11.73;100.00;94958.59;108204;1278;23346;-77
2023/10/25 02:12:15;;;;;;;12.00;6.50;;;;;;;11.73;100.00;94957.75;108188;1273;22579;-77
2023/10/25 02:14:47;;;;;;;10.40;6.20;;;;;;;11.73;100.00;94955.41;108190;1276;24386;-77
2023/10/25 02:17:18;;;;;;;13.60;6.90;;;;;;;11.73;100.00;94953.75;108230;1268;22968;-77
2023/10/25 02:19:49;;;;;;;12.20;6.80;;;;;;;11.74;100.00;94955.36;108165;1278;22533;-77
2023/10/25 02:22:20;;;;;;;16.00;7.00;;;;;;;11.75;100.00;94954.02;108164;1278;24382;-77
2023/10/25 02:24:57;;;;;;;13.00;6.90;;;;;;;11.75;100.00;94952.67;108171;1271;22578;-77
2023/10/25 02:27:28;;;;;;;11.90;5.80;;;;;;;11.74;100.00;94952.56;108157;1278;22534;-77
2023/10/25 02:30:02;;;;;;;11.90;5.60;;;;;;;11.73;100.00;94950.16;108168;1278;24074;-77
2023/10/25 02:32:33;;;;;;;11.30;6.40;;;;;;;11.71;100.00;94952.06;108215;1278;22540;-76
2023/10/25 02:35:05;;;;;;;10.20;5.70;;;;;;;11.70;100.00;94953.41;108247;1278;22599;-77
2023/10/25 02:37:35;;;;;;;10.50;6.80;;;;;;;11.70;100.00;94951.45;108309;1277;24208;-77
2023/10/25 02:40:09;;;;;;;9.50;6.30;;;;;;;11.71;100.00;94951.53;108113;1278;31458;-77
2023/10/25 02:42:42;;;;;;;10.10;6.40;;;;;;;11.71;100.00;94947.13;108233;1277;22532;-77
2023/10/25 02:45:13;;;;;;;10.60;5.70;;;;;;;11.70;100.00;94950.00;108196;1278;22953;-77
2023/10/25 02:47:44;;;;;;;9.40;5.60;;;;;;;11.71;100.00;94949.44;108208;1278;22528;-77
2023/10/25 02:50:15;;;;;;;11.70;5.80;;;;;;;11.73;100.00;94944.92;108188;1261;25223;-77
2023/10/25 02:52:48;;;;;;;11.10;5.50;;;;;;;11.74;100.00;94947.84;108207;1274;22527;-77
2023/10/25 02:55:19;;;;;;;12.10;5.50;;;;;;;11.75;100.00;94948.88;108137;1278;22719;-77
2023/10/25 02:57:51;;;;;;;10.80;5.20;;;;;;;11.76;100.00;94946.48;108194;1267;24032;-77
2023/10/25 03:00:22;;;;;;;10.30;5.60;;;;;;;11.77;100.00;94943.50;108224;1277;22549;-77
2023/10/25 03:02:56;;;;;;;12.00;4.40;;;;;;;11.79;100.00;94944.19;108238;1277;22517;-77
2023/10/25 03:05:28;;;;;;;9.60;4.70;;;;;;;11.81;100.00;94946.46;108233;1277;22533;-77
2023/10/25 03:07:59;;;;;;;13.60;5.30;;;;;;;11.83;100.00;94943.44;108211;1277;24393;-77
2023/10/25 03:10:30;;;;;;;8.20;4.70;;;;;;;11.85;100.00;94941.38;108200;1276;22534;-77
2023/10/25 03:13:01;;;;;;;11.60;5.60;;;;;;;11.87;100.00;94943.35;108242;1276;22554;-77
2023/10/25 03:15:32;;;;;;;9.50;5.40;;;;;;;11.88;100.00;94945.80;108195;1277;22529;-77
2023/10/25 03:18:04;;;;;;;12.10;5.40;;;;;;;11.88;100.00;94941.19;108182;1277;22542;-77
2023/10/25 03:20:37;;;;;;;9.40;5.00;;;;;;;11.88;100.00;94943.00;108196;1277;22616;-77
2023/10/25 03:23:10;;;;;;;10.10;5.10;;;;;;;11.88;100.00;94942.63;108232;1271;24858;-77
2023/10/25 03:25:41;;;;;;;8.80;4.40;;;;;;;11.88;100.00;94943.38;108214;1277;22532;-77
2023/10/25 03:28:13;;;;;;;8.30;4.60;;;;;;;11.87;100.00;94938.48;108196;1277;22534;-77
2023/10/25 03:30:44;;;;;;;7.80;4.30;;;;;;;11.86;100.00;94939.81;108193;1278;22546;-77
2023/10/25 03:33:14;;;;;;;8.00;5.20;;;;;;;11.85;100.00;94934.39;108212;1267;24252;-77
2023/10/25 03:35:55;;;;;;;7.60;4.70;;;;;;;11.84;100.00;94932.48;108219;1277;25422;-77
2023/10/25 03:38:29;;;;;;;8.30;4.30;;;;;;;11.84;100.00;94932.79;108339;1270;22520;-77
2023/10/25 03:41:07;;;;;;;9.20;4.90;;;;;;;11.84;100.00;94928.52;108201;1272;22564;-77
2023/10/25 03:43:39;;;;;;;12.10;6.20;;;;;;;11.82;100.00;94925.45;108194;1278;22524;-77
2023/10/25 03:46:10;;;;;;;16.90;8.20;;;;;;;11.80;100.00;94925.48;108200;1277;24231;-77
2023/10/25 03:48:42;;;;;;;7.30;4.80;;;;;;;11.79;100.00;94923.17;108176;1278;25450;-77
2023/10/25 03:51:13;;;;;;;9.50;5.30;;;;;;;11.79;100.00;94918.61;108183;1277;22523;-77
2023/10/25 03:53:45;;;;;;;9.70;5.20;;;;;;;11.80;100.00;94917.95;108219;1278;22538;-77
2023/10/25 03:56:16;;;;;;;6.60;4.30;;;;;;;11.80;100.00;94918.27;108161;1277;25420;-77
2023/10/25 03:58:47;;;;;;;5.00;3.60;;;;;;;11.80;100.00;94917.91;108163;1278;26460;-76
2023/10/25 04:01:17;;;;;;;7.60;4.40;;;;;;;11.81;100.00;94912.47;108177;1278;25422;-77
2023/10/25 04:03:49;;;;;;;7.40;4.20;;;;;;;11.82;100.00;94918.01;108183;1278;23021;-77
2023/10/25 04:06:23;;;;;;;6.70;4.60;;;;;;;11.83;100.00;94916.73;108199;1277;25512;-77
2023/10/25 04:08:54;;;;;;;9.60;4.80;;;;;;;11.84;100.00;94916.91;108210;1278;23019;-77
2023/10/25 04:11:27;;;;;;;9.40;4.90;;;;;;;11.84;100.00;94917.59;108211;1277;22538;-77
2023/10/25 04:13:58;;;;;;;8.30;5.00;;;;;;;11.84;100.00;94914.59;108176;1271;22596;-77
2023/10/25 04:16:31;;;;;;;8.70;5.10;;;;;;;11.86;100.00;94914.34;108139;1278;22677;-77
2023/10/25 04:19:02;;;;;;;10.30;5.10;;;;;;;11.89;100.00;94915.63;108178;1267;22525;-77
2023/10/25 04:21:33;;;;;;;8.70;5.00;;;;;;;11.91;100.00;94917.05;108159;1278;23432;-77
2023/10/25 04:24:05;;;;;;;5.50;4.40;;;;;;;11.92;100.00;94920.56;108224;1278;25377;-77
2023/10/25 04:26:36;;;;;;;8.40;5.10;;;;;;;11.93;100.00;94919.40;108164;1278;22581;-77
2023/10/25 04:29:08;;;;;;;7.20;4.60;;;;;;;11.94;100.00;94916.78;108173;1278;22590;-77
2023/10/25 04:31:39;;;;;;;9.50;5.20;;;;;;;11.95;100.00;94916.88;108238;1278;22538;-77
2023/10/25 04:34:10;;;;;;;8.20;4.90;;;;;;;11.97;100.00;94915.96;108176;1278;22645;-77
2023/10/25 04:36:41;;;;;;;5.50;2.90;;;;;;;11.99;100.00;94921.29;108213;1278;24402;-77
2023/10/25 04:39:12;;;;;;;5.60;3.60;;;;;;;12.06;100.00;94917.57;108159;1278;22537;-77
2023/10/25 04:41:43;;;;;;;5.90;3.70;;;;;;;12.12;100.00;94915.67;108163;1278;22530;-77
2023/10/25 04:44:15;;;;;;;5.70;4.20;;;;;;;12.15;100.00;94912.48;108183;1278;22511;-77
2023/10/25 04:46:45;;;;;;;6.80;3.60;;;;;;;12.15;100.00;94912.95;108178;1278;22517;-77
2023/10/25 04:49:17;;;;;;;4.60;3.70;;;;;;;12.15;100.00;94913.92;108142;1279;25292;-77
2023/10/25 04:51:48;;;;;;;4.40;3.10;;;;;;;12.17;100.00;94921.65;108164;1274;22524;-77
2023/10/25 04:54:19;;;;;;;4.80;3.40;;;;;;;12.21;100.00;94931.66;108199;1278;22531;-77
2023/10/25 04:56:51;;;;;;;5.20;3.60;;;;;;;12.29;100.00;94935.43;108205;1274;22523;-77
2023/10/25 04:59:22;;;;;;;5.80;2.80;;;;;;;12.33;100.00;94936.46;108173;1278;22613;-77
2023/10/25 05:01:53;;;;;;;5.90;2.50;;;;;;;12.38;100.00;94944.67;108177;1278;22521;-77
2023/10/25 05:04:27;;;;;;;3.00;2.30;;;;;;;12.41;100.00;94948.44;108215;1274;23082;-77
2023/10/25 05:06:59;;;;;;;3.70;2.00;;;;;;;12.41;100.00;94955.28;108207;1277;23034;-77
2023/10/25 05:09:32;;;;;;;2.30;1.20;;;;;;;12.41;100.00;94957.41;108210;1278;22522;-77
2023/10/25 05:12:07;;;;;;;2.80;1.40;;;;;;;12.42;100.00;94963.19;108176;1278;23500;-77
2023/10/25 05:14:40;;;;;;;1.80;1.00;;;;;;;12.41;100.00;94959.50;108424;1278;22534;-77
2023/10/25 05:17:13;;;;;;;1.40;0.80;;;;;;;12.41;100.00;94975.48;108554;1278;22520;-77
2023/10/25 05:19:45;;;;;;;3.00;1.70;;;;;;;12.39;100.00;94980.84;108204;1278;26466;-77
2023/10/25 05:22:17;;;;;;;2.50;0.90;;;;;;;12.35;100.00;94978.27;108196;1278;22547;-77
2023/10/25 05:24:49;;;;;;;2.30;1.70;;;;;;;12.32;100.00;94983.73;108205;1270;23209;-77
2023/10/25 05:27:21;;;;;;;3.50;2.20;;;;;;;12.27;100.00;94985.63;108177;1274;22567;-77
2023/10/25 05:29:53;;;;;;;3.70;1.90;;;;;;;12.25;100.00;94994.71;108179;1277;25445;-77
2023/10/25 05:32:27;;;;;;;5.50;2.80;;;;;;;12.21;100.00;94998.98;108218;1278;22523;-77
2023/10/25 05:35:01;;;;;;;7.20;3.20;;;;;;;12.17;100.00;95003.13;108212;1274;22539;-77
2023/10/25 05:37:33;;;;;;;8.50;3.20;;;;;;;12.15;100.00;95008.65;108154;1278;25273;-77
2023/10/25 05:40:09;;;;;;;4.80;2.50;;;;;;;12.14;100.00;95010.83;108151;1278;22549;-77
2023/10/25 05:42:46;;;;;;;6.30;3.20;;;;;;;12.12;100.00;95018.90;108275;1267;22640;-77
2023/10/25 05:45:18;;;;;;;7.30;4.30;;;;;;;12.11;100.00;95022.34;108190;1278;22588;-77
2023/10/25 05:47:50;;;;;;;7.90;3.80;;;;;;;12.08;100.00;95026.98;108151;1278;22947;-77
2023/10/25 05:50:23;;;;;;;10.90;5.30;;;;;;;12.04;100.00;95027.21;108269;1278;22533;-77
2023/10/25 05:52:57;;;;;;;5.50;3.10;;;;;;;12.00;100.00;95032.04;108201;1278;22586;-77
2023/10/25 05:55:31;;;;;;;4.70;3.10;;;;;;;11.95;100.00;95035.10;108160;1278;25207;-77
2023/10/25 05:58:03;;;;;;;5.10;3.10;;;;;;;11.92;100.00;95038.65;108210;1278;22543;-77
2023/10/25 06:00:35;;;;;;;6.10;3.50;;;;;;;11.91;100.00;95038.90;108142;1275;22528;-77
2023/10/25 06:03:09;;;;;;;4.50;3.10;;;;;;;11.92;100.00;95052.73;108151;1278;23860;-77
2023/10/25 06:05:42;;;;;;;4.80;3.70;;;;;;;11.91;100.00;95051.34;108176;1278;22568;-77
2023/10/25 06:08:14;;;;;;;6.80;4.10;;;;;;;11.89;100.00;95057.35;108124;1278;22525;-77
2023/10/25 06:10:48;;;;;;;4.30;3.60;;;;;;;11.89;100.00;95059.80;108174;1278;25021;-77
2023/10/25 06:13:20;;;;;;;5.10;4.00;;;;;;;11.88;100.00;95061.96;108160;1274;22529;-77
2023/10/25 06:15:53;;;;;;;8.10;5.90;;;;;;;11.86;100.00;95063.48;108140;1278;22524;-77
2023/10/25 06:18:28;;;;;;;5.30;4.30;;;;;;;11.85;100.00;95066.61;108125;1278;22525;-77
2023/10/25 06:21:01;;;;;;;10.70;6.50;;;;;;;11.84;100.00;95074.03;108175;1278;22536;-77
2023/10/25 06:23:35;;;;;;;8.70;5.60;;;;;;;11.83;100.00;95076.72;108167;1278;22544;-77
2023/10/25 06:26:09;;;;;;;9.10;7.20;;;;;;;11.81;100.00;95077.16;108141;1278;22534;-77
2023/10/25 06:28:40;;;;;;;9.40;7.10;;;;;;;11.80;100.00;95088.43;108193;1278;22521;-77
2023/10/25 06:31:15;;;;;;;9.50;7.90;;;;;;;11.79;100.00;95089.96;108188;1278;22525;-77
2023/10/25 06:33:46;;;;;;;11.60;8.40;;;;;;;11.78;100.00;95094.60;108156;1278;25284;-77
2023/10/25 06:36:19;;;;;;;14.00;9.90;;;;;;;11.75;100.00;95098.00;108174;1277;22604;-77
2023/10/25 06:38:55;;;;;;;15.80;9.40;;;;;;;11.72;100.00;95100.99;108154;1278;25334;-77
2023/10/25 06:41:29;;;;;;;16.50;10.00;;;;;;;11.70;100.00;95103.95;108298;1277;22657;-77
2023/10/25 06:44:01;;;;;;;13.20;9.90;;;;;;;11.67;100.00;95103.59;108143;1278;22560;-77
2023/10/25 06:46:36;;;;;;;14.50;9.70;;;;;;;11.66;100.00;95110.16;108170;1278;22520;-77
2023/10/25 06:49:08;;;;;;;12.30;9.70;;;;;;;11.63;100.00;95111.78;108246;1278;25191;-77
2023/10/25 06:51:42;;;;;;;13.00;10.40;;;;;;;11.63;100.00;95115.13;108172;1278;22520;-77
2023/10/25 06:54:15;;;;;;;12.90;9.70;;;;;;;11.61;100.00;95120.13;108201;1278;24402;-77
2023/10/25 06:56:47;;;;;;;12.50;9.40;;;;;;;11.59;100.00;95119.77;108193;1278;22633;-77
2023/10/25 06:59:19;;;;;;;14.20;9.30;;;;;;;11.57;100.00;95124.00;108143;1277;25626;-77
2023/10/25 07:02:00;;;;;;;14.80;10.90;;;;;;;11.55;100.00;95131.00;108154;1271;24228;-77
2023/10/25 07:04:33;;;;;;;17.30;12.00;;;;;;;11.54;100.00;95136.30;108186;1268;23983;-77
2023/10/25 07:07:09;;;;;;;17.60;11.60;;;;;;;11.51;100.00;95136.28;108180;1277;22576;-77
2023/10/25 07:09:42;;;;;;;17.30;12.70;;;;;;;11.49;100.00;95141.36;108252;1277;25286;-77
2023/10/25 07:12:14;;;;;;;14.20;9.00;;;;;;;11.49;100.00;95136.80;108186;1278;22629;-77
2023/10/25 07:14:46;;;;;;;15.60;11.20;;;;;;;11.47;100.00;95145.77;108205;1278;22619;-77
2023/10/25 07:17:17;;;;;;;18.20;12.80;;;;;;;11.45;100.00;95146.59;108216;1278;22521;-77
2023/10/25 07:19:48;;;;;;;19.70;13.40;;;;;;;11.44;100.00;95151.26;108157;1278;22519;-77
2023/10/25 07:22:19;;;;;;;15.90;11.50;;;;;;;11.44;100.00;95148.35;108188;1277;22524;-77
2023/10/25 07:24:51;;;;;;;16.10;12.20;;;;;;;11.42;100.00;95148.98;108163;1277;25343;-77
2023/10/25 07:27:22;;;;;;;14.90;11.80;;;;;;;11.43;100.00;95153.04;108184;1278;22587;-77
2023/10/25 07:29:54;;;;;;;12.60;8.00;;;;;;;11.44;100.00;95154.27;108130;1277;22546;-77
2023/10/25 07:32:25;;;;;;;14.40;10.30;;;;;;;11.45;100.00;95153.63;108194;1278;22632;-77
2023/10/25 07:34:57;;;;;;;16.40;10.30;;;;;;;11.45;100.00;95153.34;108193;1277;22530;-77
2023/10/25 07:37:30;;;;;;;17.00;10.90;;;;;;;11.44;100.00;95153.38;108139;1277;22535;-77
2023/10/25 07:40:01;;;;;;;14.80;7.40;;;;;;;11.44;100.00;95153.81;108163;1278;22528;-77
2023/10/25 07:42:34;;;;;;;16.10;10.60;;;;;;;11.40;100.00;95151.98;108134;1278;23287;-77
2023/10/25 07:45:06;;;;;;;13.50;8.50;;;;;;;11.38;100.00;95156.85;108198;1277;22567;-77
2023/10/25 07:47:38;;;;;;;16.30;11.20;;;;;;;11.36;100.00;95155.83;108142;1272;22537;-77
2023/10/25 07:50:10;;;;;;;19.00;12.00;;;;;;;11.33;100.00;95156.63;108139;1277;22550;-77
2023/10/25 07:52:41;;;;;;;16.20;9.80;;;;;;;11.33;100.00;95158.97;108154;1275;25017;-77
2023/10/25 07:55:12;;;;;;;13.90;9.20;;;;;;;11.34;100.00;95159.41;108203;1278;22631;-77
2023/10/25 07:57:44;;;;;;;11.30;7.70;;;;;;;11.35;100.00;95157.02;108172;1277;24220;-77
2023/10/25 08:00:16;;;;;;;16.20;10.70;;;;;;;11.36;100.00;95162.52;108174;1276;22518;-77
2023/10/25 08:02:47;;;;;;;14.30;8.30;;;;;;;11.36;100.00;95160.27;108187;1278;24195;-77
2023/10/25 08:05:19;;;;;;;11.90;7.80;;;;;;;11.37;100.00;95153.36;108202;1278;22536;-77
2023/10/25 08:07:50;;;;;;;11.00;7.10;;;;;;;11.36;100.00;95163.82;108215;1278;22520;-77
2023/10/25 08:10:21;;;;;;;9.40;6.10;;;;;;;11.35;100.00;95159.89;108175;1278;22531;-77
2023/10/25 08:12:52;;;;;;;10.10;7.20;;;;;;;11.32;100.00;95158.66;108166;1277;22527;-77
2023/10/25 08:15:23;;;;;;;13.50;9.20;;;;;;;11.29;100.00;95168.33;108191;1279;22552;-77
2023/10/25 08:17:59;;;;;;;11.30;7.60;;;;;;;11.28;100.00;95174.45;108154;1277;22520;-77
2023/10/25 08:20:30;;;;;;;9.70;6.80;;;;;;;11.27;100.00;95173.58;108145;1277;22552;-77
2023/10/25 08:23:01;;;;;;;11.00;7.30;;;;;;;11.28;100.00;95172.61;108199;1278;24217;-77
2023/10/25 08:25:36;;;;;;;10.50;6.80;;;;;;;11.25;100.00;95172.91;108212;1276;22536;-77
2023/10/25 08:28:08;;;;;;;12.40;7.60;;;;;;;11.20;100.00;95169.37;108090;1278;246336;-77
2023/10/25 08:30:39;;;;;;;13.60;8.00;;;;;;;11.20;100.00;95182.50;108187;1278;22548;-77
2023/10/25 08:33:10;;;;;;;12.40;8.00;;;;;;;11.21;100.00;95184.44;108190;1278;22517;-77
2023/10/25 08:35:41;;;;;;;11.10;6.40;;;;;;;11.22;100.00;95185.40;108193;1278;24224;-77
2023/10/25 08:38:12;;;;;;;10.90;6.70;;;;;;;11.21;100.00;95199.36;108176;1272;22517;-77
2023/10/25 08:40:44;;;;;;;13.60;9.60;;;;;;;11.18;100.00;95196.84;108185;1274;24281;-77
2023/10/25 08:43:17;;;;;;;15.20;7.80;;;;;;;11.19;100.00;95201.86;108165;1278;24213;-77
2023/10/25 08:45:48;;;;;;;14.30;8.20;;;;;;;11.17;100.00;95200.19;108197;1278;22518;-77
2023/10/25 08:48:19;;;;;;;12.70;7.70;;;;;;;11.16;100.00;95211.36;108131;1269;24221;-77
2023/10/25 08:50:52;;;;;;;13.60;7.30;;;;;;;11.15;100.00;95217.10;108156;1278;25295;-77
2023/10/25 08:53:26;;;;;;;10.20;6.40;;;;;;;11.16;100.00;95216.52;108400;1278;25393;-77
2023/10/25 08:56:00;;;;;;;19.10;6.40;;;;;;;11.16;100.00;95215.85;108287;1278;22541;-77
2023/10/25 08:58:31;;;;;;;11.20;6.60;;;;;;;11.17;100.00;95217.09;108200;1278;22608;-77
2023/10/25 09:01:03;;;;;;;14.50;7.60;;;;;;;11.19;100.00;95226.33;108201;1261;22564;-77
2023/10/25 09:03:44;;;;;;;13.00;7.60;;;;;;;11.21;100.00;95221.73;108189;1277;25464;-77
2023/10/25 09:06:26;;;;;;;11.80;7.20;;;;;;;11.22;100.00;95224.70;108196;1278;24236;-77
2023/10/25 09:09:05;;;;;;;11.30;7.20;;;;;;;11.22;100.00;95223.64;108172;1278;22568;-77
2023/10/25 09:11:45;;;;;;;;;;;;;;;11.21;100.00;95227.09;108300;1278;22514;-77
2023/10/25 09:14:17;;;;;;;8.50;5.60;;;;;;;11.19;100.00;95227.04;108200;1278;22526;-77
2023/10/25 09:16:48;;;;;;;10.20;6.20;;;;;;;11.21;100.00;95227.94;108159;1278;22645;-77
2023/10/25 09:19:23;;;;;;;8.60;5.60;;;;;;;11.24;100.00;95227.00;108133;1278;22645;-77
2023/10/25 09:21:58;;;;;;;9.00;5.00;;;;;;;11.26;100.00;95230.91;108179;1278;22640;-77
2023/10/25 09:24:47;;;;;;;9.00;6.00;;;;;;;11.28;100.00;95233.77;108199;1277;23275;-77
2023/10/25 09:27:20;;;;;;;10.20;5.20;;;;;;;11.30;100.00;95228.23;108301;1278;22889;-77
2023/10/25 09:29:52;;;;;;;8.40;5.70;;;;;;;11.32;100.00;95227.09;108192;1278;22544;-77
2023/10/25 09:32:27;;;;;;;8.80;4.50;;;;;;;11.34;100.00;95226.88;108180;1278;23281;-79
2023/10/25 09:34:58;;;;;;;11.00;6.60;;;;;;;11.33;100.00;95215.84;108183;1278;23972;-78
2023/10/25 09:37:29;;;;;;;8.70;5.50;;;;;;;11.34;100.00;95210.43;108210;1279;22587;-78
2023/10/25 09:40:00;;;;;;;12.30;6.40;;;;;;;11.34;100.00;95223.48;108220;1278;22545;-79
2023/10/25 09:42:40;;;;;;;9.20;6.30;;;;;;;11.35;100.00;95218.36;108265;1278;22555;-79
2023/10/25 09:45:13;;;;;;;8.60;6.60;;;;;;;11.36;100.00;95229.91;108294;1278;23699;-78
2023/10/25 09:47:52;;;;;;;8.10;5.90;;;;;;;11.37;100.00;95220.54;108300;1275;22531;-78
2023/10/25 09:50:31;;;;;;;12.50;6.20;;;;;;;11.41;100.00;95220.87;108277;1278;22536;-78
2023/10/25 09:53:09;;;;;;;8.40;5.30;;;;;;;11.47;100.00;95225.20;108228;1278;24396;-78
2023/10/25 09:55:46;;;;;;;9.30;4.90;;;;;;;11.48;100.00;95230.18;108212;1278;22530;-78
2023/10/25 09:58:20;;;;;;;9.30;5.50;;;;;;;11.48;100.00;95231.00;108183;1278;22545;-78
2023/10/25 10:00:53;;;;;;;5.70;4.40;;;;;;;11.51;100.00;95224.30;108214;1272;22548;-78
2023/10/25 10:03:33;;;;;;;7.60;5.10;;;;;;;11.60;100.00;95224.52;108169;1278;24252;-78
2023/10/25 10:06:09;;;;;;;5.20;3.30;;;;;;;11.77;100.00;95218.26;108178;1278;22637;-78
2023/10/25 10:08:50;;;;;;;7.80;4.70;;;;;;;11.96;100.00;95218.03;108181;1278;23169;-78
2023/10/25 10:11:28;;;;;;;5.00;2.80;;;;;;;12.08;100.00;95211.05;108249;1278;25975;-78
2023/10/25 10:14:30;;;;;;;8.70;4.00;;;;;;;12.15;100.00;95217.77;108149;1278;25302;-78
2023/10/25 10:17:05;;;;;;;7.60;4.40;;;;;;;12.11;100.00;95213.05;108191;1278;22576;-78
2023/10/25 10:19:40;;;;;;;7.20;3.20;;;;;;;12.08;100.00;95225.45;108183;1278;24245;-77
2023/10/25 10:22:13;;;;;;;6.50;3.90;;;;;;;12.04;100.00;95223.77;108161;1274;23200;-78
2023/10/25 10:24:47;;;;;;;14.10;3.60;;;;;;;12.04;100.00;95222.48;108226;1278;25364;-78
2023/10/25 10:27:19;;;;;;;4.90;3.40;;;;;;;12.02;100.00;95233.21;108312;1278;22527;-78
2023/10/25 10:29:51;;;;;;;3.80;2.80;;;;;;;11.99;100.00;95235.37;108174;1278;22554;-78
2023/10/25 10:32:22;;;;;;;9.90;4.20;;;;;;;11.98;100.00;95238.96;108184;1272;22535;-78
2023/10/25 10:34:56;;;;;;;5.70;4.40;;;;;;;12.03;100.00;95243.80;108177;1278;22531;-78
2023/10/25 10:37:29;;;;;;;5.80;3.20;;;;;;;12.04;100.00;95240.39;108195;1278;22531;-78
2023/10/25 10:40:16;;;;;;;5.20;3.50;;;;;;;11.97;100.00;95231.34;108157;1278;22541;-78
2023/10/25 10:42:47;;;;;;;5.30;2.90;;;;;;;11.89;100.00;95243.84;108191;1278;22717;-78
2023/10/25 10:45:20;;;;;;;4.30;3.10;;;;;;;11.82;100.00;95248.06;108226;1278;25533;-78
2023/10/25 10:48:02;;;;;;;5.40;2.90;;;;;;;11.77;100.00;95236.61;108157;1276;22636;-78
2023/10/25 10:50:34;;;;;;;6.20;3.80;;;;;;;11.71;100.00;95240.39;108209;1278;22527;-78
2023/10/25 10:53:05;;;;;;;4.70;3.30;;;;;;;11.66;100.00;95244.02;108179;1278;22534;-78
2023/10/25 10:55:37;;;;;;;4.30;3.40;;;;;;;11.62;100.00;95247.72;108212;1278;22531;-78
2023/10/25 10:58:08;;;;;;;3.70;3.00;;;;;;;11.59;100.00;95253.55;108132;1278;22573;-78
2023/10/25 11:00:44;;;;;;;4.70;3.50;;;;;;;11.56;100.00;95247.91;108188;1278;22551;-78
2023/10/25 11:03:19;;;;;;;4.50;3.60;;;;;;;11.53;100.00;95256.38;108184;1278;22548;-78
2023/10/25 11:05:52;;;;;;;5.60;3.30;;;;;;;11.50;100.00;95256.59;108192;1278;22557;-78
2023/10/25 11:08:27;;;;;;;4.30;3.20;;;;;;;11.48;100.00;95258.54;108173;1278;29575;-78
2023/10/25 11:10:58;;;;;;;5.70;3.50;;;;;;;11.46;100.00;95264.38;108233;1278;23340;-78
2023/10/25 11:13:30;;;;;;;4.40;2.60;;;;;;;11.46;100.00;95270.31;108187;1278;24313;-78
2023/10/25 11:16:08;;;;;;;4.90;3.10;;;;;;;11.48;100.00;95266.13;108189;1278;22650;-78
2023/10/25 11:18:42;;;;;;;4.70;3.20;;;;;;;11.52;100.00;95269.11;108178;1277;22503;-77
2023/10/25 11:21:15;;;;;;;4.10;2.30;;;;;;;11.59;100.00;95276.06;108177;1277;22540;-78
2023/10/25 11:23:46;;;;;;;3.70;2.20;;;;;;;11.66;100.00;95273.44;108223;1277;23032;-77
2023/10/25 11:26:18;;;;;;;3.80;2.30;;;;;;;11.72;100.00;95275.46;108223;1277;22527;-78
2023/10/25 11:28:51;;;;;;;2.40;1.90;;;;;;;11.79;100.00;95280.90;108153;1270;27770;-78
2023/10/25 11:31:22;;;;;;;3.60;2.40;;;;;;;11.83;100.00;95275.79;108183;1278;24251;-78
2023/10/25 11:33:56;;;;;;;4.70;2.30;;;;;;;11.88;100.00;95272.56;108186;1278;22538;-78
2023/10/25 11:36:30;;;;;;;3.90;2.80;;;;;;;11.97;100.00;95279.42;108171;1277;22526;-78